Time;durP1;ratioP1;P1;durP2;ratioP2;P2;SDS_P1;SDS_P2;PMS_P1;PMS_P2;Temp;Humidity;BMP_temperature;BMP_pressure;BME280_temperature;BME280_humidity;BME280_pressure;Samples;Min_cycle;Max_cycle;Signal;HPM_P1;HPM_P2
2021/05/15 06:01:46;;;;;;;8.28;5.95;;;;;;;13.40;68.23;99494.58;1729916;77;25397;-63
2021/05/15 06:04:14;;;;;;;7.33;5.50;;;;;;;13.41;68.07;99500.78;1758260;80;25782;-62
2021/05/15 06:06:40;;;;;;;6.87;4.92;;;;;;;13.40;67.56;99504.63;1725957;81;26292;-64
2021/05/15 06:09:07;;;;;;;6.78;4.80;;;;;;;13.34;67.38;99509.53;1748077;80;27379;-65
2021/05/15 06:11:34;;;;;;;6.08;4.50;;;;;;;13.28;67.06;99516.33;1737017;80;27222;-65
2021/05/15 06:14:00;;;;;;;5.58;3.98;;;;;;;13.18;66.78;99509.46;1715597;81;25888;-63
2021/05/15 06:16:28;;;;;;;4.42;3.75;;;;;;;13.14;66.91;99512.63;1726319;80;25800;-64
2021/05/15 06:18:55;;;;;;;5.10;4.03;;;;;;;13.07;66.81;99518.64;1729824;80;25600;-64
2021/05/15 06:21:21;;;;;;;5.22;3.27;;;;;;;13.06;66.87;99517.66;1716543;80;29602;-64
2021/05/15 06:23:47;;;;;;;8.18;4.42;;;;;;;13.01;66.69;99515.19;1731402;81;25822;-64
2021/05/15 06:26:14;;;;;;;5.78;4.12;;;;;;;13.00;66.80;99518.45;1734441;81;25682;-64
2021/05/15 06:28:40;;;;;;;5.55;4.17;;;;;;;12.99;66.85;99522.31;1728042;81;25775;-65
2021/05/15 06:31:08;;;;;;;6.92;4.78;;;;;;;13.01;66.98;99525.47;1724013;81;25673;-63
2021/05/15 06:33:35;;;;;;;6.45;3.80;;;;;;;13.01;66.78;99525.47;1730805;80;27375;-65
2021/05/15 06:36:03;;;;;;;6.40;3.58;;;;;;;12.97;66.49;99525.91;1723795;81;25644;-64
2021/05/15 06:38:30;;;;;;;3.85;3.42;;;;;;;12.96;66.66;99531.71;1729960;81;25715;-64
2021/05/15 06:40:56;;;;;;;5.22;3.50;;;;;;;12.98;66.74;99532.16;1729341;81;25836;-64
2021/05/15 06:43:23;;;;;;;6.97;3.67;;;;;;;13.01;66.91;99527.40;1737933;81;25836;-65
2021/05/15 06:45:49;;;;;;;5.28;3.50;;;;;;;13.06;66.78;99533.37;1725847;81;27328;-64
2021/05/15 06:48:17;;;;;;;4.17;3.77;;;;;;;13.17;67.11;99535.02;1730811;80;25838;-65
2021/05/15 06:50:43;;;;;;;4.83;3.95;;;;;;;13.30;66.59;99535.78;1672674;83;25818;-64
2021/05/15 06:53:10;;;;;;;3.90;3.60;;;;;;;13.39;66.46;99537.80;1713161;81;25690;-64
2021/05/15 06:55:36;;;;;;;4.25;3.58;;;;;;;13.55;66.66;99538.41;1715826;81;25731;-63
2021/05/15 06:58:06;;;;;;;7.75;3.75;;;;;;;13.67;66.44;99532.12;1721019;82;27438;-65
2021/05/15 07:00:34;;;;;;;5.65;3.72;;;;;;;13.96;66.62;99538.53;1737159;81;25720;-64
2021/05/15 07:03:00;;;;;;;5.30;3.40;;;;;;;14.24;66.51;99535.52;1714566;82;25753;-65
2021/05/15 07:05:27;;;;;;;4.87;3.90;;;;;;;14.46;65.70;99535.45;1718586;81;25812;-65
2021/05/15 07:07:53;;;;;;;3.70;3.30;;;;;;;14.62;65.03;99538.94;1729856;81;25866;-65
2021/05/15 07:10:20;;;;;;;5.20;3.60;;;;;;;14.77;64.16;99543.36;1741745;81;28004;-63
2021/05/15 07:12:47;;;;;;;5.72;4.05;;;;;;;14.75;63.22;99544.48;1729752;81;25700;-63
2021/05/15 07:15:13;;;;;;;5.25;4.00;;;;;;;14.81;63.36;99550.44;1726429;81;26520;-58
2021/05/15 07:17:40;;;;;;;5.17;4.67;;;;;;;14.91;63.11;99551.83;1736649;81;26283;-58
2021/05/15 07:20:08;;;;;;;4.60;4.10;;;;;;;14.92;62.59;99546.61;1713378;82;25707;-57
2021/05/15 07:22:34;;;;;;;5.70;3.60;;;;;;;14.96;61.62;99554.85;1734874;81;27353;-58
2021/05/15 07:25:01;;;;;;;3.98;3.50;;;;;;;14.93;61.54;99561.23;1724940;81;27232;-57
2021/05/15 07:27:29;;;;;;;5.17;3.40;;;;;;;14.89;61.78;99552.17;1730887;81;25687;-57
2021/05/15 07:29:56;;;;;;;6.00;3.90;;;;;;;14.97;62.09;99561.89;1698364;82;26168;-59
2021/05/15 07:32:24;;;;;;;5.90;4.12;;;;;;;14.97;61.29;99561.30;1721823;81;25930;-59
2021/05/15 07:34:51;;;;;;;5.90;3.72;;;;;;;14.94;61.25;99568.23;1710497;81;27305;-59
2021/05/15 07:37:18;;;;;;;3.08;2.77;;;;;;;14.79;60.77;99573.15;1706908;82;26305;-58
2021/05/15 07:39:47;;;;;;;3.77;3.40;;;;;;;14.62;60.48;99560.71;1703004;82;25914;-58
2021/05/15 07:42:14;;;;;;;4.37;3.92;;;;;;;14.56;60.83;99557.45;1735651;81;26146;-59
2021/05/15 07:44:41;;;;;;;3.55;3.25;;;;;;;14.55;60.42;99570.05;1723809;81;25689;-58
2021/05/15 07:47:08;;;;;;;7.92;2.90;;;;;;;14.50;60.27;99571.09;1726482;81;27321;-57
2021/05/15 07:49:35;;;;;;;2.95;2.75;;;;;;;14.54;60.88;99566.55;1746888;81;25703;-58
2021/05/15 07:52:03;;;;;;;3.40;2.60;;;;;;;14.64;60.73;99573.97;1742691;80;26013;-58
2021/05/15 07:54:29;;;;;;;2.80;2.60;;;;;;;14.74;60.63;99574.78;1753720;81;25696;-58
2021/05/15 07:56:56;;;;;;;2.85;2.65;;;;;;;14.77;60.10;99575.45;1756993;81;25825;-57
2021/05/15 07:59:22;;;;;;;2.83;2.58;;;;;;;14.83;59.90;99578.67;1734742;81;27303;-63
2021/05/15 08:01:49;;;;;;;3.10;2.90;;;;;;;14.96;60.10;99585.58;1729105;80;25676;-63
2021/05/15 08:04:16;;;;;;;3.70;3.40;;;;;;;15.05;59.17;99580.74;1727855;81;25866;-64
2021/05/15 08:06:42;;;;;;;4.65;4.25;;;;;;;15.09;59.23;99584.91;1722301;81;25776;-64
2021/05/15 08:09:09;;;;;;;8.25;6.90;;;;;;;15.22;60.19;99579.55;1727169;81;25758;-64
2021/05/15 08:11:36;;;;;;;5.72;4.72;;;;;;;15.48;59.73;99587.06;1756507;79;27933;-64
2021/05/15 08:14:05;;;;;;;4.70;4.22;;;;;;;15.53;58.84;99581.91;1729056;81;25789;-64
2021/05/15 08:16:34;;;;;;;5.25;4.62;;;;;;;15.49;58.88;99587.30;1732224;81;25691;-64
2021/05/15 08:19:02;;;;;;;6.10;5.30;;;;;;;15.57;58.83;99597.75;1725987;82;25693;-64
2021/05/15 08:21:29;;;;;;;6.30;4.60;;;;;;;15.66;58.80;99588.80;1729211;82;25836;-62
2021/05/15 08:23:55;;;;;;;4.15;3.22;;;;;;;15.86;59.60;99590.15;1721703;81;27963;-64
2021/05/15 08:26:22;;;;;;;4.30;3.90;;;;;;;16.14;56.97;99592.61;1720230;81;25680;-65
2021/05/15 08:28:51;;;;;;;3.72;3.17;;;;;;;16.17;56.68;99599.27;1720894;81;25699;-64
2021/05/15 08:31:17;;;;;;;4.22;3.83;;;;;;;16.21;56.74;99602.86;1695489;82;25733;-65
2021/05/15 08:33:44;;;;;;;4.53;4.12;;;;;;;16.42;56.45;99607.29;1719649;81;25642;-64
2021/05/15 08:36:11;;;;;;;4.97;3.77;;;;;;;16.51;55.72;99607.03;1715321;82;27495;-64
2021/05/15 08:38:39;;;;;;;5.03;3.40;;;;;;;16.58;56.11;99590.80;1725072;81;25818;-64
2021/05/15 08:41:08;;;;;;;3.72;3.42;;;;;;;16.95;56.88;99588.03;1721214;80;26100;-65
2021/05/15 08:43:42;;;;;;;4.85;3.50;;;;;;;17.62;55.85;99586.52;1718618;81;25695;-60
2021/05/15 08:46:13;;;;;;;3.70;3.40;;;;;;;17.86;54.64;99595.61;1730745;81;25779;-64
2021/05/15 08:48:41;;;;;;;5.37;3.42;;;;;;;18.15;55.32;99594.52;1735281;81;28140;-65
2021/05/15 08:51:12;;;;;;;3.27;3.08;;;;;;;18.49;54.91;99595.79;1737926;81;25855;-64
2021/05/15 08:53:40;;;;;;;4.28;3.87;;;;;;;18.61;53.29;99597.41;1749520;81;25785;-65
2021/05/15 08:56:09;;;;;;;3.58;3.15;;;;;;;18.50;53.16;99606.93;1747074;81;25815;-65
2021/05/15 08:58:39;;;;;;;3.92;3.62;;;;;;;18.27;51.80;99604.41;1751413;81;25645;-64
2021/05/15 09:01:10;;;;;;;4.65;3.12;;;;;;;18.32;52.05;99604.63;1760463;80;27244;-64
2021/05/15 09:03:37;;;;;;;4.78;2.98;;;;;;;18.55;53.75;99605.20;1716592;81;26463;-66
2021/05/15 09:06:04;;;;;;;3.27;2.80;;;;;;;19.14;53.63;99604.45;1737658;80;25687;-64
2021/05/15 09:08:32;;;;;;;3.20;2.80;;;;;;;19.68;51.09;99600.55;1727163;80;26330;-62
2021/05/15 09:10:59;;;;;;;3.95;2.67;;;;;;;19.91;50.16;99597.51;1721666;82;25835;-63
2021/05/15 09:13:31;;;;;;;3.35;3.05;;;;;;;19.91;49.83;99605.14;1750002;80;27375;-63
2021/05/15 09:16:04;;;;;;;2.42;2.22;;;;;;;19.64;48.00;99593.68;1737104;80;25742;-63
2021/05/15 09:18:35;;;;;;;3.15;2.85;;;;;;;20.00;49.46;99595.75;1685010;82;25807;-64
2021/05/15 09:21:10;;;;;;;2.90;2.60;;;;;;;20.63;48.64;99601.09;1677611;83;26076;-64
2021/05/15 09:23:44;;;;;;;3.05;2.55;;;;;;;21.01;48.50;99598.69;1685558;83;25833;-63
2021/05/15 09:26:18;;;;;;;3.15;2.47;;;;;;;21.07;47.52;99591.59;1681200;83;27314;-62
2021/05/15 09:28:49;;;;;;;3.20;2.10;;;;;;;21.00;47.01;99599.09;1692141;83;25860;-62
2021/05/15 09:31:42;;;;;;;4.20;2.10;;;;;;;20.66;46.43;99598.94;1653185;84;26013;-62
2021/05/15 09:34:10;;;;;;;3.40;1.92;;;;;;;20.67;47.14;99592.84;1710347;81;25896;-63
2021/05/15 09:36:43;;;;;;;2.25;1.92;;;;;;;20.77;46.83;99593.45;1695165;83;25823;-63
2021/05/15 09:39:20;;;;;;;4.28;2.37;;;;;;;20.70;46.86;99594.81;1706597;82;27379;-63
2021/05/15 09:41:59;;;;;;;2.60;2.40;;;;;;;20.60;46.64;99590.88;1713658;81;25929;-63
2021/05/15 09:44:35;;;;;;;2.60;2.40;;;;;;;20.40;45.52;99588.31;1733448;81;25774;-61
2021/05/15 09:47:04;;;;;;;2.58;2.20;;;;;;;20.14;46.11;99599.31;1717564;81;26340;-61
2021/05/15 09:49:33;;;;;;;2.95;2.75;;;;;;;20.17;46.80;99589.49;1720208;81;25765;-64
2021/05/15 09:52:05;;;;;;;35.85;21.65;;;;;;;20.26;47.30;99588.54;1722212;81;27956;-62
2021/05/15 09:54:35;;;;;;;11.48;8.08;;;;;;;20.70;47.24;99590.11;1715698;80;26038;-59
2021/05/15 09:57:13;;;;;;;3.02;1.80;;;;;;;20.76;46.10;99589.72;1723889;81;26350;-58
2021/05/15 09:59:46;;;;;;;4.30;1.92;;;;;;;20.83;44.79;99593.22;1741909;80;27897;-58
2021/05/15 10:02:19;;;;;;;4.25;2.10;;;;;;;21.40;45.91;99589.53;1724736;80;25415;-58
2021/05/15 10:04:54;;;;;;;2.65;1.75;;;;;;;22.30;44.42;99589.02;1729066;80;27455;-59
2021/05/15 10:07:32;;;;;;;2.02;1.50;;;;;;;23.01;44.09;99588.16;1728795;81;25808;-59
2021/05/15 10:09:52;;;;;;;2.55;1.60;;;;;;;23.55;42.70;99587.55;1690393;82;26520;-58
2021/05/15 10:12:22;;;;;;;2.15;1.60;;;;;;;23.83;41.15;99588.38;1756306;80;26342;-59
2021/05/15 10:14:50;;;;;;;2.27;1.60;;;;;;;23.75;39.14;99591.82;1734012;80;25830;-57
2021/05/15 10:17:16;;;;;;;2.95;1.90;;;;;;;23.50;38.87;99590.77;1726080;80;27463;-57
2021/05/15 10:19:42;;;;;;;2.52;1.55;;;;;;;23.37;39.86;99592.51;1732716;80;26334;-57
2021/05/15 10:22:09;;;;;;;1.50;1.40;;;;;;;23.42;39.93;99596.97;1740822;80;25841;-59
2021/05/15 10:24:38;;;;;;;5.30;3.52;;;;;;;23.50;40.19;99597.67;1746281;80;25845;-57
2021/05/15 10:27:13;;;;;;;1.70;1.50;;;;;;;23.62;39.00;99596.34;1742900;80;25877;-58
2021/05/15 10:29:54;;;;;;;1.80;1.50;;;;;;;23.75;38.64;99593.20;1741425;80;27296;-58
2021/05/15 10:32:27;;;;;;;4.85;1.62;;;;;;;23.93;38.59;99590.80;1730317;80;26307;-58
2021/05/15 10:35:06;;;;;;;2.60;1.50;;;;;;;24.33;36.27;99592.34;1717666;82;26135;-58
2021/05/15 10:37:38;;;;;;;;;;;;;;;24.09;35.27;99589.55;1738495;80;26347;-58
2021/05/15 10:40:17;;;;;;;2.95;1.27;;;;;;;24.08;37.36;99592.76;1729213;80;25694;-58
2021/05/15 10:42:45;;;;;;;4.40;1.72;;;;;;;24.41;35.82;99589.03;1718771;81;28253;-59
2021/05/15 10:45:13;;;;;;;4.00;1.62;;;;;;;24.60;31.16;99597.25;1737333;80;25820;-58
2021/05/15 10:47:44;;;;;;;6.47;1.87;;;;;;;24.32;33.74;99591.57;1718673;81;25814;-58
2021/05/15 10:50:22;;;;;;;5.55;1.52;;;;;;;24.28;32.86;99590.05;1736885;80;27859;-57
2021/05/15 10:52:52;;;;;;;5.25;1.60;;;;;;;24.18;33.35;99603.63;1748285;80;26428;-57
2021/05/15 10:55:38;;;;;;;1.67;1.40;;;;;;;23.90;33.45;99589.64;1745274;80;27474;-58
2021/05/15 10:58:14;;;;;;;2.50;1.05;;;;;;;24.31;34.12;99589.99;1742295;80;25739;-58
2021/05/15 11:00:42;;;;;;;1.70;1.52;;;;;;;24.73;34.52;99588.34;1732601;80;26322;-58
2021/05/15 11:03:08;;;;;;;6.28;1.50;;;;;;;24.36;32.74;99590.90;1693447;81;25784;-58
2021/05/15 11:05:47;;;;;;;3.60;1.57;;;;;;;24.01;32.35;99587.52;1682276;83;26213;-58
2021/05/15 11:08:26;;;;;;;3.35;1.30;;;;;;;23.76;32.40;99591.98;1736279;80;26528;-57
2021/05/15 11:10:54;;;;;;;3.42;1.62;;;;;;;24.16;33.92;99590.84;1742535;81;26116;-59
2021/05/15 11:13:22;;;;;;;3.70;2.00;;;;;;;24.79;34.31;99584.67;1744424;81;25898;-59
2021/05/15 11:15:49;;;;;;;2.40;1.53;;;;;;;25.54;32.44;99575.49;1730755;80;26286;-59
2021/05/15 11:18:31;;;;;;;2.55;1.70;;;;;;;25.86;31.88;99580.13;1725229;81;25690;-59
2021/05/15 11:21:07;;;;;;;2.50;1.85;;;;;;;26.16;30.67;99581.83;1729480;80;27422;-58
2021/05/15 11:23:36;;;;;;;4.53;1.65;;;;;;;25.60;29.21;99592.37;1726594;81;25763;-61
2021/05/15 11:26:11;;;;;;;3.37;1.72;;;;;;;25.14;30.00;99587.94;1717116;81;26515;-59
2021/05/15 11:28:34;;;;;;;3.10;1.92;;;;;;;25.26;31.18;99587.16;1686918;82;26249;-59
2021/05/15 11:31:10;;;;;;;3.08;1.95;;;;;;;25.30;30.29;99578.17;1703158;81;25844;-60
2021/05/15 11:33:36;;;;;;;4.15;2.00;;;;;;;25.04;29.89;99589.55;1748778;80;27888;-62
2021/05/15 11:36:04;;;;;;;3.58;3.10;;;;;;;24.37;30.03;99582.03;1741177;79;25773;-62
2021/05/15 11:38:32;;;;;;;3.52;1.50;;;;;;;23.81;31.56;99587.41;1739080;81;26440;-60
2021/05/15 11:41:03;;;;;;;5.17;1.70;;;;;;;23.64;31.31;99582.89;1749899;80;25759;-59
2021/05/15 11:43:35;;;;;;;3.98;2.50;;;;;;;24.07;32.12;99586.44;1742079;81;25846;-62
2021/05/15 11:46:05;;;;;;;6.75;2.33;;;;;;;24.18;30.21;99591.81;1747209;80;27322;-61
2021/05/15 11:48:34;;;;;;;4.67;2.15;;;;;;;24.10;29.07;99584.22;1732730;80;25839;-62
2021/05/15 11:51:18;;;;;;;3.65;2.30;;;;;;;24.17;31.08;99585.48;1732181;80;25800;-62
2021/05/15 11:53:51;;;;;;;3.25;2.10;;;;;;;24.27;29.39;99585.75;1697775;81;25874;-60
2021/05/15 11:56:26;;;;;;;2.47;1.67;;;;;;;24.38;30.95;99591.86;1697472;82;25848;-60
2021/05/15 11:59:03;;;;;;;1.80;1.67;;;;;;;24.83;30.85;99583.22;1748072;80;27344;-60
2021/05/15 12:01:34;;;;;;;3.55;2.30;;;;;;;25.41;30.11;99589.04;1751032;80;25708;-60
2021/05/15 12:04:16;;;;;;;3.75;1.82;;;;;;;25.64;29.42;99591.70;1696267;82;25698;-62
2021/05/15 12:06:44;;;;;;;3.75;2.27;;;;;;;25.48;28.73;99599.34;1705108;82;25806;-61
2021/05/15 12:09:14;;;;;;;10.15;2.70;;;;;;;25.53;28.11;99599.45;1721951;82;25839;-61
2021/05/15 12:11:41;;;;;;;5.53;1.92;;;;;;;25.27;27.93;99588.73;1709956;82;27403;-61
2021/05/15 12:14:11;;;;;;;6.37;2.27;;;;;;;25.33;29.20;99585.02;1734913;80;26353;-61
2021/05/15 12:16:39;;;;;;;2.83;1.90;;;;;;;25.61;29.61;99588.41;1731730;80;25803;-61
2021/05/15 12:19:11;;;;;;;2.83;1.60;;;;;;;25.44;29.39;99588.19;1735803;80;25877;-61
2021/05/15 12:21:38;;;;;;;3.83;2.35;;;;;;;25.37;28.92;99593.85;1702332;82;25688;-62
2021/05/15 12:24:07;;;;;;;7.30;2.75;;;;;;;25.04;28.70;99588.16;1708413;82;27889;-61
2021/05/15 12:26:34;;;;;;;5.55;2.25;;;;;;;24.68;29.12;99591.59;1728816;81;25844;-62
2021/05/15 12:29:03;;;;;;;3.90;2.77;;;;;;;24.51;29.86;99581.00;1719173;81;25677;-61
2021/05/15 12:31:35;;;;;;;3.27;2.42;;;;;;;24.79;30.12;99582.48;1716859;81;25683;-62
2021/05/15 12:34:07;;;;;;;3.98;2.40;;;;;;;25.23;30.43;99576.30;1685644;83;25740;-61
2021/05/15 12:36:36;;;;;;;5.15;2.08;;;;;;;25.50;28.13;99565.70;1697904;83;27385;-62
2021/05/15 12:39:08;;;;;;;;;;;;;;;25.51;28.84;99563.11;1738718;80;25792;-62
2021/05/15 12:41:37;;;;;;;2.90;1.95;;;;;;;25.76;28.29;99570.88;1712885;80;25901;-62
2021/05/15 12:44:18;;;;;;;6.35;2.52;;;;;;;25.89;29.03;99569.58;1742261;80;25818;-62
2021/05/15 12:46:49;;;;;;;3.15;1.85;;;;;;;25.78;27.64;99564.88;1721740;81;26964;-61
2021/05/15 12:49:22;;;;;;;3.00;2.35;;;;;;;25.57;28.06;99553.08;1689179;83;27308;-61
2021/05/15 12:51:55;;;;;;;6.05;2.85;;;;;;;25.24;27.30;99558.50;1746181;81;25967;-61
2021/05/15 12:54:26;;;;;;;3.58;2.30;;;;;;;24.85;28.92;99553.14;1742525;81;25776;-62
2021/05/15 12:57:03;;;;;;;4.28;2.20;;;;;;;25.00;29.48;99549.50;1739299;81;25821;-61
2021/05/15 12:59:40;;;;;;;4.12;2.52;;;;;;;25.00;29.27;99562.56;1733197;80;26669;-62
2021/05/15 13:02:12;;;;;;;3.60;2.17;;;;;;;24.99;29.02;99549.31;1674579;83;27335;-62
2021/05/15 13:04:49;;;;;;;3.02;1.70;;;;;;;25.25;29.13;99551.77;1677793;83;26505;-62
2021/05/15 13:07:36;;;;;;;5.35;2.37;;;;;;;25.06;28.52;99549.78;1686023;83;25951;-62
2021/05/15 13:10:12;;;;;;;10.25;6.90;;;;;;;24.91;28.82;99553.42;1643044;86;25927;-60
2021/05/15 13:12:41;;;;;;;5.08;2.22;;;;;;;25.29;29.42;99540.66;1656108;84;25777;-61
2021/05/15 13:15:29;;;;;;;6.87;1.70;;;;;;;25.65;27.58;99515.72;1642245;85;27320;-62
2021/05/15 13:18:02;;;;;;;3.42;2.20;;;;;;;25.64;28.12;99527.22;1654162;84;25866;-61
2021/05/15 13:20:29;;;;;;;2.15;1.70;;;;;;;25.79;26.95;99527.06;1641641;85;26019;-62
2021/05/15 13:22:57;;;;;;;2.75;2.02;;;;;;;25.70;27.42;99532.43;1657794;84;25987;-62
2021/05/15 13:25:24;;;;;;;6.60;3.10;;;;;;;25.35;27.50;99527.85;1655024;85;26580;-61
2021/05/15 13:27:50;;;;;;;5.47;1.95;;;;;;;24.91;27.67;99546.51;1645051;85;27877;-62
2021/05/15 13:30:18;;;;;;;4.42;2.17;;;;;;;24.52;27.46;99535.55;1627617;86;25957;-62
2021/05/15 13:32:44;;;;;;;4.47;1.82;;;;;;;24.48;27.78;99528.71;1654707;84;25886;-61
2021/05/15 13:35:11;;;;;;;3.45;1.40;;;;;;;24.54;28.83;99520.16;1643401;85;26055;-62
2021/05/15 13:37:38;;;;;;;3.62;1.60;;;;;;;24.97;28.28;99519.92;1653041;84;25938;-64
2021/05/15 13:40:06;;;;;;;4.83;2.20;;;;;;;25.11;27.28;99525.16;1623326;86;27344;-62
2021/05/15 13:42:33;;;;;;;5.15;1.92;;;;;;;24.89;26.56;99528.18;1625125;86;26623;-62
2021/05/15 13:45:00;;;;;;;2.75;2.27;;;;;;;24.86;27.79;99520.73;1637614;86;25964;-60
2021/05/15 13:47:26;;;;;;;5.53;1.82;;;;;;;24.90;27.95;99524.99;1621382;86;26600;-59
2021/05/15 13:49:53;;;;;;;2.52;1.87;;;;;;;24.73;28.21;99531.05;1629394;86;25864;-59
2021/05/15 13:52:19;;;;;;;2.02;1.70;;;;;;;24.55;28.20;99523.69;1626382;86;29512;-59
2021/05/15 13:54:46;;;;;;;5.28;1.98;;;;;;;24.51;28.27;99519.58;1663352;81;25779;-59
2021/05/15 13:57:12;;;;;;;3.10;1.67;;;;;;;24.56;28.65;99524.65;1738112;80;25508;-60
2021/05/15 13:59:39;;;;;;;4.00;1.85;;;;;;;24.44;28.71;99516.95;1738672;80;25824;-59
2021/05/15 14:02:05;;;;;;;2.30;1.70;;;;;;;24.49;29.06;99517.08;1732827;80;25639;-59
2021/05/15 14:04:32;;;;;;;70.57;5.15;;;;;;;24.57;28.30;99505.48;1780941;79;27841;-60
2021/05/15 14:06:59;;;;;;;4.17;1.87;;;;;;;24.70;29.00;99509.77;1775518;78;25780;-60
2021/05/15 14:09:26;;;;;;;4.70;1.87;;;;;;;24.84;28.00;99509.32;1772648;79;25733;-59
2021/05/15 14:11:52;;;;;;;2.85;1.75;;;;;;;24.71;28.32;99502.28;1783518;79;25869;-59
2021/05/15 14:14:19;;;;;;;4.67;1.52;;;;;;;24.55;28.44;99502.95;1772616;79;25808;-57
2021/05/15 14:16:45;;;;;;;2.55;1.57;;;;;;;24.45;28.49;99503.91;1783727;79;28903;-57
2021/05/15 14:19:11;;;;;;;5.15;1.80;;;;;;;24.38;28.88;99508.38;1784887;79;25644;-57
2021/05/15 14:21:38;;;;;;;3.15;1.80;;;;;;;24.24;28.15;99498.94;1775594;79;25880;-57
2021/05/15 14:24:06;;;;;;;3.33;1.80;;;;;;;24.17;28.85;99501.22;1781430;79;26218;-56
2021/05/15 14:26:32;;;;;;;2.85;1.50;;;;;;;24.07;28.98;99500.81;1711875;81;25913;-57
2021/05/15 14:28:59;;;;;;;2.55;1.72;;;;;;;24.10;29.45;99506.11;1729530;80;27348;-57
2021/05/15 14:31:25;;;;;;;4.65;1.70;;;;;;;24.18;29.17;99496.50;1725559;81;25808;-58
2021/05/15 14:33:51;;;;;;;3.45;1.80;;;;;;;24.12;29.43;99505.08;1728221;81;25760;-58
2021/05/15 14:36:17;;;;;;;3.22;1.50;;;;;;;24.04;29.36;99497.50;1781554;79;25798;-60
2021/05/15 14:38:44;;;;;;;1.92;1.55;;;;;;;23.97;29.19;99501.77;1768428;79;25802;-58
2021/05/15 14:41:11;;;;;;;2.00;1.22;;;;;;;23.86;29.39;99495.81;1771094;79;29610;-57
2021/05/15 14:43:38;;;;;;;5.62;2.00;;;;;;;23.74;28.55;99501.90;1774315;79;27179;-59
2021/05/15 14:46:08;;;;;;;3.87;1.77;;;;;;;23.46;29.50;99493.44;1757661;80;25661;-59
2021/05/15 14:48:36;;;;;;;1.87;1.40;;;;;;;23.33;29.63;99498.75;1751783;80;25814;-58
2021/05/15 14:51:08;;;;;;;4.10;1.90;;;;;;;23.22;29.94;99494.73;1735085;80;25867;-58
2021/05/15 14:53:36;;;;;;;4.05;1.50;;;;;;;23.20;29.97;99492.23;1736870;80;27368;-58
2021/05/15 14:56:07;;;;;;;4.15;1.57;;;;;;;23.08;29.96;99495.71;1747159;80;31567;-59
2021/05/15 14:58:36;;;;;;;3.00;1.50;;;;;;;22.92;30.18;99496.28;1738503;80;25669;-72
2021/05/15 15:26:47;;;;;;;2.92;1.40;;;;;;;24.98;30.09;99489.08;1856145;75;26231;-58
2021/05/15 15:29:13;;;;;;;3.27;1.98;;;;;;;24.64;28.69;99496.28;1769625;80;25320;-59
2021/05/15 15:31:40;;;;;;;2.12;1.50;;;;;;;24.23;29.17;99488.50;1795808;79;27570;-57
2021/05/15 15:34:06;;;;;;;1.22;1.15;;;;;;;23.98;29.66;99486.77;1725049;80;25861;-58
2021/05/15 15:36:34;;;;;;;1.85;1.27;;;;;;;23.82;29.79;99485.44;1752733;80;25641;-58
2021/05/15 15:39:02;;;;;;;2.37;1.32;;;;;;;23.66;29.62;99474.22;1760028;80;25722;-59
2021/05/15 15:41:28;;;;;;;5.47;1.35;;;;;;;23.44;29.68;99480.66;1756420;80;25640;-63
2021/05/15 15:43:57;;;;;;;2.08;1.50;;;;;;;23.16;30.13;99476.34;1762939;80;27510;-64
2021/05/15 15:46:24;;;;;;;1.50;1.32;;;;;;;22.98;30.17;99472.39;1765673;80;25523;-61
2021/05/15 15:48:50;;;;;;;1.65;1.32;;;;;;;22.73;31.28;99471.50;1756888;81;25918;-62
2021/05/15 15:51:17;;;;;;;3.25;1.70;;;;;;;22.45;31.18;99469.06;1765736;80;25832;-66
2021/05/15 15:53:44;;;;;;;2.98;1.55;;;;;;;22.23;31.42;99465.11;1759516;80;25650;-64
2021/05/15 15:56:10;;;;;;;2.00;1.35;;;;;;;22.07;31.75;99463.50;1765519;80;28408;-66
2021/05/15 15:58:37;;;;;;;2.70;1.72;;;;;;;21.89;32.61;99463.05;1732487;80;25800;-65
2021/05/15 16:01:03;;;;;;;2.55;1.80;;;;;;;21.71;32.74;99467.33;1761456;80;25781;-63
2021/05/15 16:03:38;;;;;;;1.95;1.45;;;;;;;21.49;32.43;99470.02;1722906;80;26003;-61
2021/05/15 16:05:58;;;;;;;5.83;1.90;;;;;;;21.31;32.69;99463.24;1761085;80;26243;-62
2021/05/15 16:08:25;;;;;;;1.90;1.72;;;;;;;21.14;33.29;99463.53;1770662;80;26495;-60
2021/05/15 16:10:51;;;;;;;4.75;1.90;;;;;;;21.01;32.81;99453.56;1773443;80;26038;-62
2021/05/15 16:13:19;;;;;;;2.30;1.60;;;;;;;20.84;33.33;99457.95;1794066;79;25791;-62
2021/05/15 16:15:47;;;;;;;4.00;1.70;;;;;;;20.68;33.59;99455.07;1705917;80;25864;-62
2021/05/15 16:18:14;;;;;;;3.12;1.67;;;;;;;20.50;34.19;99457.86;1778235;79;26241;-63
2021/05/15 16:20:40;;;;;;;3.00;1.60;;;;;;;20.34;34.20;99457.50;1769381;79;28263;-61
2021/05/15 16:23:06;;;;;;;2.37;1.80;;;;;;;20.16;34.27;99457.54;1778115;79;25698;-61
2021/05/15 16:25:33;;;;;;;3.95;1.55;;;;;;;20.05;34.73;99455.38;1774306;79;25658;-59
2021/05/15 16:27:59;;;;;;;2.87;1.50;;;;;;;19.95;34.95;99456.38;1746349;80;25796;-62
2021/05/15 16:30:32;;;;;;;2.83;1.65;;;;;;;19.86;35.02;99453.23;1743364;81;25746;-61
2021/05/15 16:32:55;;;;;;;2.22;1.40;;;;;;;19.78;35.11;99453.84;1775720;80;27556;-61
2021/05/15 16:35:22;;;;;;;4.85;2.37;;;;;;;19.73;35.40;99448.71;1767968;80;25707;-61
2021/05/15 16:37:48;;;;;;;2.92;1.82;;;;;;;19.69;35.84;99456.14;1775263;80;26157;-64
2021/05/15 16:40:14;;;;;;;5.37;2.10;;;;;;;19.66;35.42;99454.17;1724529;81;25883;-60
2021/05/15 16:42:41;;;;;;;1.37;1.27;;;;;;;19.63;35.11;99455.54;1753230;80;25727;-60
2021/05/15 16:45:08;;;;;;;2.47;1.47;;;;;;;19.52;35.35;99454.95;1744565;81;29619;-59
2021/05/15 16:47:35;;;;;;;2.40;1.50;;;;;;;19.39;35.16;99454.55;1730658;82;25865;-61
2021/05/15 16:50:01;;;;;;;2.75;2.10;;;;;;;19.26;35.35;99447.86;1744829;80;26386;-59
2021/05/15 16:52:27;;;;;;;7.37;1.90;;;;;;;19.17;36.00;99450.17;1720286;80;25740;-59
2021/05/15 16:54:54;;;;;;;1.98;1.77;;;;;;;19.06;36.07;99453.48;1748095;81;25783;-59
2021/05/15 16:57:20;;;;;;;3.95;2.00;;;;;;;19.01;35.89;99451.89;1720041;82;28441;-60
2021/05/15 16:59:48;;;;;;;2.92;2.10;;;;;;;18.95;35.81;99452.05;1747329;80;25848;-61
2021/05/15 17:02:15;;;;;;;3.65;1.67;;;;;;;18.90;36.08;99449.12;1761509;80;26427;-62
2021/05/15 17:04:42;;;;;;;5.05;1.80;;;;;;;18.84;36.14;99451.43;1770156;80;26186;-61
2021/05/15 17:07:08;;;;;;;1.45;1.35;;;;;;;18.83;36.18;99450.44;1771592;80;25777;-61
2021/05/15 17:09:35;;;;;;;7.80;1.80;;;;;;;18.81;36.33;99453.56;1771127;80;27538;-60
2021/05/15 17:12:01;;;;;;;3.05;1.70;;;;;;;18.77;36.56;99446.48;1744104;81;25724;-59
2021/05/15 17:14:28;;;;;;;2.50;1.57;;;;;;;18.73;36.58;99445.11;1755477;80;25690;-59
2021/05/15 17:16:54;;;;;;;2.45;1.95;;;;;;;18.69;36.33;99451.14;1749420;81;25772;-61
2021/05/15 17:19:21;;;;;;;3.98;1.60;;;;;;;18.67;36.41;99456.22;1749267;80;25657;-63
2021/05/15 17:21:50;;;;;;;1.60;1.50;;;;;;;18.64;36.51;99453.68;1758867;80;29574;-62
2021/05/15 17:24:16;;;;;;;4.20;1.77;;;;;;;18.60;36.74;99447.38;1776021;80;25677;-62
2021/05/15 17:26:42;;;;;;;3.55;1.50;;;;;;;18.61;36.86;99453.64;1767943;80;25693;-61
2021/05/15 17:29:09;;;;;;;5.22;2.95;;;;;;;18.57;37.15;99451.48;1760472;80;25695;-62
2021/05/15 17:31:35;;;;;;;4.37;2.55;;;;;;;18.55;37.10;99448.34;1765423;80;25729;-60
2021/05/15 17:34:02;;;;;;;3.70;2.30;;;;;;;18.52;37.21;99447.14;1762452;80;27542;-60
2021/05/15 17:36:28;;;;;;;6.42;2.75;;;;;;;18.48;37.46;99443.02;1761890;80;25715;-60
2021/05/15 17:38:57;;;;;;;3.60;1.65;;;;;;;18.44;37.58;99442.22;1731658;81;25754;-60
2021/05/15 17:41:24;;;;;;;7.42;2.10;;;;;;;18.42;37.86;99446.50;1764775;80;25719;-61
2021/05/15 17:43:50;;;;;;;5.85;2.80;;;;;;;18.39;38.10;99447.26;1762621;80;25770;-60
2021/05/15 17:46:18;;;;;;;10.10;2.05;;;;;;;18.35;38.42;99449.98;1764814;79;27374;-61
2021/05/15 17:48:45;;;;;;;6.87;2.00;;;;;;;18.31;38.55;99448.41;1761988;80;25728;-60
2021/05/15 17:51:15;;;;;;;10.00;2.62;;;;;;;18.25;38.47;99450.70;1762387;80;25696;-62
2021/05/15 17:53:45;;;;;;;4.30;1.80;;;;;;;18.19;38.63;99452.23;1754834;80;25628;-60
2021/05/15 17:56:13;;;;;;;4.72;1.82;;;;;;;18.11;38.64;99452.76;1774342;79;25786;-61
2021/05/15 17:58:41;;;;;;;7.65;1.90;;;;;;;18.05;38.76;99455.08;1762654;80;27507;-61
2021/05/15 18:01:11;;;;;;;21.77;11.97;;;;;;;17.98;38.96;99456.95;1784977;78;26366;-60
2021/05/15 18:03:38;;;;;;;6.45;3.08;;;;;;;17.89;39.08;99459.45;1744222;80;25811;-62
2021/05/15 18:06:05;;;;;;;2.75;2.12;;;;;;;17.81;39.25;99455.62;1746866;80;25897;-61
2021/05/15 18:08:33;;;;;;;2.37;2.10;;;;;;;17.69;39.83;99459.42;1761436;80;25751;-63